createdAt,value
2022-12-11T00:01:20.098Z,22.87
2022-12-11T00:03:48.209Z,22.85
2022-12-11T00:06:18.538Z,22.87
2022-12-11T00:08:46.225Z,22.83
2022-12-11T00:11:15.401Z,22.84
2022-12-11T00:13:43.153Z,22.87
2022-12-11T00:16:10.664Z,22.91
2022-12-11T00:18:37.873Z,22.96
2022-12-11T00:21:07.584Z,23.00
2022-12-11T00:23:36.326Z,23.02
2022-12-11T00:26:14.998Z,23.03
2022-12-11T00:28:43.603Z,23.04
2022-12-11T00:31:14.739Z,23.04
2022-12-11T00:33:42.970Z,23.05
2022-12-11T00:36:19.619Z,23.05
2022-12-11T00:38:47.070Z,23.07
2022-12-11T00:41:14.047Z,23.05
2022-12-11T00:43:41.303Z,23.06
2022-12-11T00:46:08.481Z,23.07
2022-12-11T00:48:35.643Z,23.01
2022-12-11T00:51:02.839Z,22.97
2022-12-11T00:53:30.461Z,22.89
2022-12-11T00:55:57.666Z,22.82
2022-12-11T00:58:24.764Z,22.79
2022-12-11T01:00:52.311Z,22.77
2022-12-11T01:03:19.496Z,22.77
2022-12-11T01:05:55.978Z,22.78
2022-12-11T01:08:23.076Z,22.82
2022-12-11T01:10:50.263Z,22.88
2022-12-11T01:13:17.482Z,22.93
2022-12-11T01:15:45.998Z,22.96
2022-12-11T01:18:15.565Z,22.96
2022-12-11T01:20:43.595Z,22.92
2022-12-11T01:23:13.497Z,22.88
2022-12-11T01:25:41.135Z,22.88
2022-12-11T01:28:09.118Z,22.87
2022-12-11T01:30:37.532Z,22.86
2022-12-11T01:33:04.615Z,22.87
2022-12-11T01:35:31.670Z,22.86
2022-12-11T01:37:59.545Z,22.84
2022-12-11T01:40:26.689Z,22.84
2022-12-11T01:42:53.827Z,22.82
2022-12-11T01:45:56.259Z,22.80
2022-12-11T01:48:27.830Z,22.84
2022-12-11T01:50:58.723Z,22.86
2022-12-11T01:53:31.173Z,22.88
2022-12-11T01:56:00.298Z,22.89
2022-12-11T01:58:32.525Z,22.90
2022-12-11T02:01:01.640Z,22.91
2022-12-11T02:03:28.807Z,22.93
2022-12-11T02:06:00.261Z,22.93
2022-12-11T02:08:27.520Z,22.96
2022-12-11T02:11:21.621Z,22.98
2022-12-11T02:14:03.557Z,23.01
2022-12-11T02:16:47.439Z,23.02
2022-12-11T02:19:20.529Z,23.03
2022-12-11T02:21:53.808Z,23.01
2022-12-11T02:25:05.547Z,22.99
2022-12-11T02:27:39.262Z,22.98
2022-12-11T02:30:10.427Z,22.97
2022-12-11T02:32:40.542Z,22.94
2022-12-11T02:35:30.900Z,22.94
2022-12-11T02:38:10.988Z,22.96
2022-12-11T02:40:41.642Z,22.98
2022-12-11T02:43:14.061Z,23.00
2022-12-11T02:45:42.760Z,22.99
2022-12-11T02:48:11.921Z,22.90
2022-12-11T02:50:44.863Z,22.83
2022-12-11T02:53:16.255Z,22.78
2022-12-11T02:55:45.605Z,22.76
2022-12-11T02:58:20.409Z,22.70
2022-12-11T03:00:48.326Z,22.64
2022-12-11T03:03:15.749Z,22.57
2022-12-11T03:05:43.363Z,22.53
2022-12-11T03:08:10.746Z,22.52
2022-12-11T03:10:37.931Z,22.52
2022-12-11T03:13:05.548Z,22.55
2022-12-11T03:15:37.433Z,22.58
2022-12-11T03:18:14.092Z,22.61
2022-12-11T03:20:48.134Z,22.68
2022-12-11T03:23:21.915Z,22.72
2022-12-11T03:25:57.382Z,22.73
2022-12-11T03:28:47.390Z,22.75
2022-12-11T03:31:22.836Z,22.75
2022-12-11T03:33:53.875Z,22.76
2022-12-11T03:36:27.496Z,22.77
2022-12-11T03:39:01.938Z,22.78
2022-12-11T03:41:34.552Z,22.77
2022-12-11T03:44:01.897Z,22.73
2022-12-11T03:46:33.245Z,22.74
2022-12-11T03:49:06.623Z,22.77
2022-12-11T03:51:35.547Z,22.79
2022-12-11T03:54:03.196Z,22.78
2022-12-11T03:56:34.564Z,22.74
2022-12-11T03:59:01.604Z,22.68
2022-12-11T04:01:28.830Z,22.66
2022-12-11T04:03:56.065Z,22.64
2022-12-11T04:06:23.218Z,22.60
2022-12-11T04:08:50.221Z,22.57
2022-12-11T04:11:35.344Z,22.54
2022-12-11T04:14:21.644Z,22.53
2022-12-11T04:16:48.909Z,22.55
2022-12-11T04:19:34.364Z,22.53
2022-12-11T04:22:20.096Z,22.52
2022-12-11T04:24:50.798Z,22.51
2022-12-11T04:27:38.705Z,22.50
2022-12-11T04:30:08.893Z,22.50
2022-12-11T04:32:36.007Z,22.50
2022-12-11T04:35:03.372Z,22.50
2022-12-11T04:37:30.663Z,22.51
2022-12-11T04:39:57.677Z,22.47
2022-12-11T04:42:24.791Z,22.45
2022-12-11T04:44:51.845Z,22.44
2022-12-11T04:47:18.896Z,22.48
2022-12-11T04:49:46.041Z,22.50
2022-12-11T04:52:13.159Z,22.54
2022-12-11T04:54:40.308Z,22.57
2022-12-11T04:57:07.450Z,22.58
2022-12-11T04:59:34.818Z,22.57
2022-12-11T05:02:01.973Z,22.52
2022-12-11T05:04:36.298Z,22.52
2022-12-11T05:07:03.344Z,22.50
2022-12-11T05:09:30.404Z,22.46
2022-12-11T05:11:57.537Z,22.41
2022-12-11T05:14:24.799Z,22.41
2022-12-11T05:16:51.883Z,22.43
2022-12-11T05:19:19.016Z,22.45
2022-12-11T05:21:46.025Z,22.48
2022-12-11T05:24:13.199Z,22.48
2022-12-11T05:26:40.200Z,22.48
2022-12-11T05:29:07.211Z,22.45
2022-12-11T05:31:34.375Z,22.42
2022-12-11T05:34:01.749Z,22.38
2022-12-11T05:36:31.480Z,22.34
2022-12-11T05:39:00.537Z,22.32
2022-12-11T05:41:29.563Z,22.32
2022-12-11T05:43:56.845Z,22.34
2022-12-11T05:46:30.167Z,22.36
2022-12-11T05:49:00.821Z,22.36
2022-12-11T05:51:29.116Z,22.32
2022-12-11T05:53:57.955Z,22.30
2022-12-11T05:56:28.489Z,22.30
2022-12-11T05:58:56.335Z,22.31
2022-12-11T06:01:35.699Z,22.33
2022-12-11T06:04:04.776Z,22.34
2022-12-11T06:06:32.496Z,22.34
2022-12-11T06:09:00.752Z,22.32
2022-12-11T06:11:30.115Z,22.31
2022-12-11T06:13:57.827Z,22.27
2022-12-11T06:16:25.722Z,22.28
2022-12-11T06:18:57.106Z,22.32
2022-12-11T06:21:28.308Z,22.40
2022-12-11T06:23:57.560Z,22.34
2022-12-11T06:26:25.304Z,22.29
2022-12-11T06:28:52.437Z,22.26
2022-12-11T06:31:20.020Z,22.25
2022-12-11T06:33:47.307Z,22.24
2022-12-11T06:36:18.005Z,22.25
2022-12-11T06:38:45.558Z,22.24
2022-12-11T06:41:13.013Z,22.20
2022-12-11T06:43:41.574Z,22.19
2022-12-11T06:46:11.692Z,22.15
2022-12-11T06:48:38.974Z,22.14
2022-12-11T06:51:08.654Z,22.14
2022-12-11T06:53:35.787Z,22.16
2022-12-11T06:56:08.493Z,22.17
2022-12-11T06:58:36.583Z,22.19
2022-12-11T07:01:05.367Z,22.20
2022-12-11T07:03:32.467Z,22.19
2022-12-11T07:06:02.850Z,22.17
2022-12-11T07:08:30.340Z,22.18
2022-12-11T07:11:04.221Z,22.22
2022-12-11T07:13:31.290Z,22.21
2022-12-11T07:15:59.757Z,22.22
2022-12-11T07:18:27.225Z,22.21
2022-12-11T07:20:54.317Z,22.21
2022-12-11T07:23:21.637Z,22.24
2022-12-11T07:25:48.625Z,22.25
2022-12-11T07:28:16.951Z,22.28
2022-12-11T07:30:44.056Z,22.33
2022-12-11T07:33:11.116Z,22.36
2022-12-11T07:35:38.442Z,22.38
2022-12-11T07:38:05.467Z,22.38
2022-12-11T07:40:34.040Z,22.34
2022-12-11T07:43:05.628Z,22.28
2022-12-11T07:45:32.700Z,22.27
2022-12-11T07:47:59.749Z,22.27
2022-12-11T07:50:26.867Z,22.30
2022-12-11T07:52:54.027Z,22.32
2022-12-11T07:55:21.152Z,22.36
2022-12-11T07:57:48.174Z,22.42
2022-12-11T08:00:15.539Z,22.47
2022-12-11T08:02:42.683Z,22.49
2022-12-11T08:05:10.388Z,22.48
2022-12-11T08:07:37.703Z,22.46
2022-12-11T08:10:05.654Z,22.44
2022-12-11T08:12:32.705Z,22.46
2022-12-11T08:14:59.967Z,22.46
2022-12-11T08:17:30.954Z,22.50
2022-12-11T08:20:01.049Z,22.50
2022-12-11T08:22:28.071Z,22.48
2022-12-11T08:24:55.115Z,22.48
2022-12-11T08:27:22.356Z,22.50
2022-12-11T08:29:49.501Z,22.52
2022-12-11T08:32:17.239Z,22.55
2022-12-11T08:34:44.612Z,22.57
2022-12-11T08:37:12.483Z,22.62
2022-12-11T08:39:39.548Z,22.64
2022-12-11T08:42:07.760Z,22.69
2022-12-11T08:44:34.859Z,22.75
2022-12-11T08:47:02.551Z,22.80
2022-12-11T08:49:34.167Z,22.83
2022-12-11T08:52:03.060Z,22.85
2022-12-11T08:54:30.340Z,22.86
2022-12-11T08:56:58.297Z,22.84
2022-12-11T08:59:26.055Z,22.80
2022-12-11T09:01:54.796Z,22.83
2022-12-11T09:04:22.446Z,22.87
2022-12-11T09:06:49.827Z,22.92
2022-12-11T09:09:16.955Z,22.94
2022-12-11T09:11:43.981Z,22.97
2022-12-11T09:14:10.964Z,22.98
2022-12-11T09:16:40.941Z,23.02
2022-12-11T09:19:11.822Z,23.08
2022-12-11T09:21:38.891Z,23.13
2022-12-11T09:24:06.298Z,23.17
2022-12-11T09:26:33.389Z,23.21
2022-12-11T09:29:06.578Z,23.22
2022-12-11T09:31:36.649Z,23.25
2022-12-11T09:34:09.698Z,23.17
2022-12-11T09:36:39.155Z,23.19
2022-12-11T09:39:08.511Z,23.22
2022-12-11T09:41:50.340Z,23.23
2022-12-11T09:44:51.122Z,23.27
2022-12-11T09:47:28.096Z,23.30
2022-12-11T09:50:10.361Z,23.35
2022-12-11T09:53:03.278Z,23.36
2022-12-11T09:55:38.609Z,23.34
2022-12-11T09:58:10.798Z,23.34
2022-12-11T10:00:44.438Z,23.35
2022-12-11T10:03:31.159Z,23.39
2022-12-11T10:06:26.123Z,23.40
2022-12-11T10:09:15.141Z,23.42
2022-12-11T10:11:57.258Z,23.41
2022-12-11T10:14:51.410Z,23.43
2022-12-11T10:17:26.693Z,23.43
2022-12-11T10:19:55.473Z,23.44
2022-12-11T10:22:30.247Z,23.45
2022-12-11T10:25:16.300Z,23.43
2022-12-11T10:27:45.069Z,23.42
2022-12-11T10:30:20.333Z,23.45
2022-12-11T10:32:53.173Z,23.45
2022-12-11T10:35:27.254Z,23.48
2022-12-11T10:38:02.015Z,23.51
2022-12-11T10:40:31.173Z,23.55
2022-12-11T10:42:58.209Z,23.59
2022-12-11T10:45:25.336Z,23.58
2022-12-11T10:48:03.417Z,23.57
2022-12-11T10:50:30.532Z,23.59
2022-12-11T10:52:57.980Z,23.63
2022-12-11T10:55:34.556Z,23.68
2022-12-11T10:58:04.634Z,23.71
2022-12-11T11:00:40.916Z,23.76
2022-12-11T11:03:26.987Z,23.81
2022-12-11T11:06:12.680Z,23.88
2022-12-11T11:08:45.815Z,23.97
2022-12-11T11:11:34.017Z,23.97
2022-12-11T11:14:23.291Z,23.95
2022-12-11T11:16:52.662Z,23.91
2022-12-11T11:19:35.347Z,23.89
2022-12-11T11:22:07.262Z,23.93
2022-12-11T11:24:42.046Z,23.97
2022-12-11T11:27:26.475Z,24.05
2022-12-11T11:30:00.301Z,24.10
2022-12-11T11:32:39.266Z,24.14
2022-12-11T11:35:12.816Z,24.16
2022-12-11T11:37:41.111Z,24.20
2022-12-11T11:40:20.616Z,24.23
2022-12-11T11:42:59.859Z,24.20
2022-12-11T11:45:32.468Z,24.17
2022-12-11T11:48:12.049Z,24.19
2022-12-11T11:50:45.500Z,24.20
2022-12-11T11:53:30.848Z,24.19
2022-12-11T11:56:03.977Z,24.14
2022-12-11T11:58:43.926Z,24.19
2022-12-11T12:01:17.602Z,24.28
2022-12-11T12:03:45.574Z,24.27
2022-12-11T12:06:39.164Z,24.23
2022-12-11T12:09:21.836Z,24.31
2022-12-11T12:12:09.961Z,24.35
2022-12-11T12:14:52.025Z,24.39
2022-12-11T12:17:36.518Z,24.37
2022-12-11T12:20:18.590Z,24.43
2022-12-11T12:23:03.717Z,24.44
2022-12-11T12:25:44.337Z,24.47
2022-12-11T12:28:11.383Z,24.48
2022-12-11T12:30:48.546Z,24.43
2022-12-11T12:33:21.460Z,24.36
2022-12-11T12:36:07.208Z,24.30
2022-12-11T12:39:01.584Z,24.23
2022-12-11T12:41:53.270Z,24.13
2022-12-11T12:44:24.247Z,24.14
2022-12-11T12:47:02.416Z,24.09
2022-12-11T12:49:51.640Z,24.19
2022-12-11T12:52:29.855Z,24.27
2022-12-11T12:55:14.595Z,24.38
2022-12-11T12:58:00.909Z,24.46
2022-12-11T13:00:28.165Z,24.52
2022-12-11T13:02:56.514Z,24.51
2022-12-11T13:05:33.165Z,24.54
2022-12-11T13:08:03.803Z,24.54
2022-12-11T13:10:37.442Z,24.45
2022-12-11T13:13:05.429Z,24.48
2022-12-11T13:15:42.944Z,24.45
2022-12-11T13:18:33.687Z,24.41
2022-12-11T13:21:01.591Z,24.47
2022-12-11T13:23:31.932Z,24.61
2022-12-11T13:26:04.615Z,24.67
2022-12-11T13:28:51.342Z,24.72
2022-12-11T13:31:18.499Z,24.81
2022-12-11T13:33:55.242Z,24.83
2022-12-11T13:36:28.329Z,24.84
2022-12-11T13:39:01.249Z,24.90
2022-12-11T13:43:57.819Z,24.91
2022-12-11T13:46:31.383Z,24.87
2022-12-11T13:49:02.098Z,24.83
2022-12-11T13:51:31.778Z,24.69
2022-12-11T13:54:04.866Z,24.49
2022-12-11T13:56:32.140Z,24.46
2022-12-11T13:58:59.268Z,24.61
2022-12-11T14:01:33.076Z,24.79
2022-12-11T14:04:07.285Z,24.95
2022-12-11T14:06:36.367Z,25.10
2022-12-11T14:09:04.834Z,25.18
2022-12-11T14:11:36.182Z,25.11
2022-12-11T14:14:07.069Z,25.02
2022-12-11T14:16:34.565Z,25.08
2022-12-11T14:19:05.687Z,25.11
2022-12-11T14:21:32.974Z,25.15
2022-12-11T14:24:06.868Z,25.19
2022-12-11T14:26:38.189Z,25.30
2022-12-11T14:29:06.235Z,25.38
2022-12-11T14:31:44.636Z,25.41
2022-12-11T14:34:19.271Z,25.48
2022-12-11T14:36:48.195Z,25.46
2022-12-11T14:39:19.539Z,25.45
2022-12-11T14:41:53.724Z,25.44
2022-12-11T14:44:24.571Z,25.45
2022-12-11T14:47:19.158Z,25.39
2022-12-11T14:49:52.385Z,25.44
2022-12-11T14:52:23.258Z,25.53
2022-12-11T14:55:27.894Z,25.59
2022-12-11T14:58:00.258Z,25.58
2022-12-11T15:00:30.501Z,25.56
2022-12-11T15:03:05.941Z,25.66
2022-12-11T15:05:40.577Z,25.73
2022-12-11T15:08:10.982Z,25.70
2022-12-11T15:10:42.001Z,25.64
2022-12-11T15:13:10.525Z,25.66
2022-12-11T15:15:48.120Z,25.75
2022-12-11T15:18:28.793Z,25.71
2022-12-11T15:21:02.258Z,25.67
2022-12-11T15:23:30.720Z,25.67
2022-12-11T15:26:00.431Z,25.73
2022-12-11T15:28:34.568Z,25.82
2022-12-11T15:31:29.121Z,25.90
2022-12-11T15:33:56.360Z,25.94
2022-12-11T15:36:26.858Z,25.89
2022-12-11T15:38:54.078Z,25.82
2022-12-11T15:41:21.965Z,25.88
2022-12-11T15:43:51.795Z,25.91
2022-12-11T15:46:22.720Z,25.93
2022-12-11T15:48:50.375Z,25.86
2022-12-11T15:51:17.652Z,25.84
2022-12-11T15:53:44.738Z,25.75
2022-12-11T15:56:18.174Z,25.76
2022-12-11T15:58:46.612Z,25.80
2022-12-11T16:01:13.729Z,25.78
2022-12-11T16:03:40.753Z,25.76
2022-12-11T16:06:12.615Z,25.73
2022-12-11T16:08:39.618Z,25.70
2022-12-11T16:11:06.776Z,25.67
2022-12-11T16:13:33.891Z,25.75
2022-12-11T16:16:00.907Z,25.76
2022-12-11T16:18:27.919Z,25.84
2022-12-11T16:20:55.113Z,25.86
2022-12-11T16:23:22.131Z,25.93
2022-12-11T16:25:49.299Z,25.93
2022-12-11T16:28:21.577Z,25.84
2022-12-11T16:30:48.822Z,25.75
2022-12-11T16:33:15.976Z,25.61
2022-12-11T16:35:43.171Z,25.50
2022-12-11T16:38:11.261Z,25.36
2022-12-11T16:40:39.208Z,25.25
2022-12-11T16:43:06.573Z,25.22
2022-12-11T16:45:34.197Z,25.24
2022-12-11T16:48:05.334Z,25.36
2022-12-11T16:50:32.726Z,25.47
2022-12-11T16:52:59.800Z,25.50
2022-12-11T16:55:26.855Z,25.54
2022-12-11T16:57:54.707Z,25.49
2022-12-11T17:00:21.780Z,25.39
2022-12-11T17:02:48.853Z,25.42
2022-12-11T17:05:15.987Z,25.43
2022-12-11T17:07:43.113Z,25.41
2022-12-11T17:10:11.067Z,25.31
2022-12-11T17:12:38.181Z,25.20
2022-12-11T17:15:05.688Z,25.05
2022-12-11T17:17:32.775Z,24.94
2022-12-11T17:19:59.842Z,24.90
2022-12-11T17:22:26.926Z,24.86
2022-12-11T17:24:54.040Z,24.77
2022-12-11T17:27:21.136Z,24.68
2022-12-11T17:29:49.931Z,24.64
2022-12-11T17:32:18.645Z,24.51
2022-12-11T17:34:48.290Z,24.47
2022-12-11T17:37:15.342Z,24.43
2022-12-11T17:39:42.498Z,24.40
2022-12-11T17:42:09.768Z,24.38
2022-12-11T17:44:37.395Z,24.33
2022-12-11T17:47:10.606Z,24.26
2022-12-11T17:49:39.721Z,24.24
2022-12-11T17:52:07.090Z,24.22
2022-12-11T17:54:34.271Z,24.21
2022-12-11T17:57:01.958Z,24.20
2022-12-11T17:59:29.015Z,24.18
2022-12-11T18:01:56.086Z,24.12
2022-12-11T18:04:23.268Z,24.10
2022-12-11T18:06:50.293Z,24.06
2022-12-11T18:09:17.341Z,24.07
2022-12-11T18:11:44.449Z,24.06
2022-12-11T18:14:16.959Z,24.05
2022-12-11T18:16:44.602Z,24.01
2022-12-11T18:19:11.744Z,23.97
2022-12-11T18:21:42.917Z,23.92
2022-12-11T18:24:10.780Z,23.90
2022-12-11T18:26:37.893Z,23.89
2022-12-11T18:29:05.543Z,23.81
2022-12-11T18:31:37.475Z,23.82
2022-12-11T18:34:07.964Z,23.84
2022-12-11T18:36:35.135Z,23.82
2022-12-11T18:39:02.236Z,23.82
2022-12-11T18:41:29.286Z,23.82
2022-12-11T18:43:56.360Z,23.80
2022-12-11T18:46:23.387Z,23.79
2022-12-11T18:48:51.032Z,23.79
2022-12-11T18:51:22.860Z,23.82
2022-12-11T18:53:50.209Z,23.83
2022-12-11T18:56:19.420Z,23.85
2022-12-11T18:58:47.052Z,23.83
2022-12-11T19:01:27.080Z,23.80
2022-12-11T19:04:02.423Z,23.79
2022-12-11T19:06:32.266Z,23.80
2022-12-11T19:09:00.409Z,23.75
2022-12-11T19:11:29.553Z,23.70
2022-12-11T19:13:57.914Z,23.66
2022-12-11T19:16:29.908Z,23.69
2022-12-11T19:19:01.610Z,23.71
2022-12-11T19:21:28.896Z,23.71
2022-12-11T19:23:56.171Z,23.74
2022-12-11T19:26:24.271Z,23.76
2022-12-11T19:28:53.147Z,23.76
2022-12-11T19:31:23.172Z,23.74
2022-12-11T19:33:50.543Z,23.74
2022-12-11T19:36:21.099Z,23.72
2022-12-11T19:38:48.873Z,23.74
2022-12-11T19:41:27.377Z,23.72
2022-12-11T19:43:57.649Z,23.69
2022-12-11T19:46:25.494Z,23.69
2022-12-11T19:48:54.693Z,23.66
2022-12-11T19:51:25.535Z,23.64
2022-12-11T19:53:52.597Z,23.62
2022-12-11T19:56:20.478Z,23.61
2022-12-11T19:58:49.232Z,23.61
2022-12-11T20:01:29.195Z,23.58
2022-12-11T20:03:59.784Z,23.59
2022-12-11T20:06:32.080Z,23.57
2022-12-11T20:08:59.513Z,23.56
2022-12-11T20:11:26.865Z,23.55
2022-12-11T20:13:55.878Z,23.55
2022-12-11T20:16:45.842Z,23.55
2022-12-11T20:19:10.964Z,23.56
2022-12-11T20:21:38.055Z,23.57
2022-12-11T20:24:05.307Z,23.55
2022-12-11T20:26:36.156Z,23.55
2022-12-11T20:29:07.543Z,23.56
2022-12-11T20:31:36.493Z,23.55
2022-12-11T20:34:04.614Z,23.52
2022-12-11T20:36:32.226Z,23.48
2022-12-11T20:38:59.743Z,23.49
2022-12-11T20:41:27.197Z,23.44
2022-12-11T20:43:54.799Z,23.42
2022-12-11T20:46:25.336Z,23.44
2022-12-11T20:48:53.210Z,23.45
2022-12-11T20:51:25.798Z,23.45
2022-12-11T20:54:01.449Z,23.45
2022-12-11T20:56:30.748Z,23.44
2022-12-11T20:58:59.396Z,23.42
2022-12-11T21:01:29.734Z,23.42
2022-12-11T21:03:57.090Z,23.43
2022-12-11T21:06:30.249Z,23.42
2022-12-11T21:08:59.030Z,23.41
2022-12-11T21:11:26.285Z,23.39
2022-12-11T21:13:53.793Z,23.36
2022-12-11T21:16:21.744Z,23.34
2022-12-11T21:18:49.261Z,23.30
2022-12-11T21:21:16.824Z,23.29
2022-12-11T21:23:44.185Z,23.29
2022-12-11T21:26:11.311Z,23.28
2022-12-11T21:28:38.807Z,23.29
2022-12-11T21:31:08.408Z,23.25
2022-12-11T21:33:36.420Z,23.23
2022-12-11T21:36:06.238Z,23.21
2022-12-11T21:38:33.421Z,23.13
2022-12-11T21:41:08.828Z,23.11
2022-12-11T21:43:35.916Z,23.10
2022-12-11T21:46:03.199Z,23.07
2022-12-11T21:48:30.784Z,22.95
2022-12-11T21:51:06.569Z,22.91
2022-12-11T21:53:33.877Z,22.95
2022-12-11T21:56:00.949Z,23.00
2022-12-11T21:58:28.001Z,23.03
2022-12-11T22:00:55.114Z,23.01
2022-12-11T22:03:22.259Z,23.02
2022-12-11T22:05:49.293Z,23.03
2022-12-11T22:08:16.392Z,23.02
2022-12-11T22:10:43.499Z,23.02
2022-12-11T22:13:10.623Z,22.99
2022-12-11T22:15:37.692Z,22.98
2022-12-11T22:18:05.003Z,22.98
2022-12-11T22:20:32.278Z,22.97
2022-12-11T22:22:59.265Z,22.94
2022-12-11T22:25:26.587Z,22.94
2022-12-11T22:27:53.669Z,22.94
2022-12-11T22:30:20.724Z,22.97
2022-12-11T22:32:47.812Z,22.98
2022-12-11T22:35:15.228Z,22.98
2022-12-11T22:37:42.618Z,22.87
2022-12-11T22:40:10.017Z,22.88
2022-12-11T22:42:37.252Z,22.92
2022-12-11T22:45:04.712Z,22.94
2022-12-11T22:47:31.846Z,22.97
2022-12-11T22:49:59.308Z,22.97
2022-12-11T22:52:26.667Z,22.99
2022-12-11T22:54:53.679Z,23.00
2022-12-11T22:57:20.802Z,23.00
2022-12-11T22:59:47.905Z,23.01
2022-12-11T23:02:15.680Z,23.01
2022-12-11T23:04:43.218Z,22.99
2022-12-11T23:07:10.281Z,22.94
2022-12-11T23:09:37.351Z,22.81
2022-12-11T23:12:04.600Z,22.78
2022-12-11T23:14:31.682Z,22.80
2022-12-11T23:16:58.738Z,22.84
2022-12-11T23:19:26.240Z,22.86
2022-12-11T23:21:53.790Z,22.87
2022-12-11T23:24:20.863Z,22.88
2022-12-11T23:26:48.350Z,22.88
2022-12-11T23:29:15.639Z,22.90
2022-12-11T23:31:43.051Z,22.90
2022-12-11T23:34:10.106Z,22.92
2022-12-11T23:36:37.301Z,22.96
2022-12-11T23:39:04.709Z,22.96
2022-12-11T23:41:31.716Z,22.96
2022-12-11T23:43:58.759Z,22.97
2022-12-11T23:46:26.059Z,22.99
2022-12-11T23:48:53.928Z,23.02
2022-12-11T23:51:23.281Z,23.05
2022-12-11T23:53:50.451Z,23.07
2022-12-11T23:56:23.820Z,23.08
2022-12-11T23:58:52.031Z,23.10
